createdAt,value
2018-02-21T00:00:58.280Z,92.90
2018-02-21T00:02:35.488Z,92.50
2018-02-21T00:04:12.313Z,92.50
2018-02-21T00:05:49.615Z,91.80
2018-02-21T00:07:26.733Z,91.80
2018-02-21T00:09:03.188Z,91.80
2018-02-21T00:10:39.557Z,91.60
2018-02-21T00:12:16.275Z,91.80
2018-02-21T00:13:54.696Z,91.80
2018-02-21T00:15:31.456Z,91.70
2018-02-21T00:17:07.969Z,91.60
2018-02-21T00:18:44.809Z,91.90
2018-02-21T00:20:21.790Z,92.00
2018-02-21T00:22:00.464Z,91.90
2018-02-21T00:23:37.993Z,92.70
2018-02-21T00:25:15.240Z,92.10
2018-02-21T00:26:52.416Z,92.00
2018-02-21T00:28:29.705Z,92.10
2018-02-21T00:30:06.280Z,92.00
2018-02-21T00:31:43.683Z,92.70
2018-02-21T00:33:21.243Z,93.40
2018-02-21T00:34:58.691Z,94.10
2018-02-21T00:36:35.211Z,94.10
2018-02-21T00:38:12.742Z,94.20
2018-02-21T00:39:49.721Z,93.70
2018-02-21T00:41:26.492Z,93.60
2018-02-21T00:43:03.475Z,93.60
2018-02-21T00:44:40.835Z,94.20
2018-02-21T00:46:17.809Z,94.50
2018-02-21T00:47:55.021Z,93.50
2018-02-21T00:49:31.425Z,93.50
2018-02-21T00:51:07.721Z,93.30
2018-02-21T00:52:44.874Z,93.10
2018-02-21T00:54:22.005Z,92.50
2018-02-21T00:55:59.269Z,91.90
2018-02-21T00:57:36.996Z,92.20
2018-02-21T00:59:14.185Z,92.20
2018-02-21T01:00:50.894Z,92.50
2018-02-21T01:02:27.904Z,92.70
2018-02-21T01:04:05.446Z,92.30
2018-02-21T01:05:42.447Z,91.60
2018-02-21T01:07:19.020Z,91.60
2018-02-21T01:08:56.241Z,92.40
2018-02-21T01:10:33.189Z,92.40
2018-02-21T01:12:10.063Z,93.30
2018-02-21T01:13:47.720Z,94.20
2018-02-21T01:15:27.341Z,94.90
2018-02-21T01:17:03.729Z,94.80
2018-02-21T01:18:40.598Z,95.00
2018-02-21T01:20:17.826Z,94.90
2018-02-21T01:21:54.392Z,94.90
2018-02-21T01:23:30.888Z,94.90
2018-02-21T01:25:07.526Z,95.00
2018-02-21T01:26:43.833Z,94.90
2018-02-21T01:28:21.324Z,95.50
2018-02-21T01:29:59.083Z,94.40
2018-02-21T01:31:36.486Z,94.40
2018-02-21T01:33:13.602Z,94.60
2018-02-21T01:34:50.795Z,94.60
2018-02-21T01:36:27.426Z,94.70
2018-02-21T01:38:04.229Z,94.30
2018-02-21T01:39:40.505Z,93.70
2018-02-21T01:41:16.999Z,93.80
2018-02-21T01:42:53.470Z,93.60
2018-02-21T01:44:30.422Z,93.90
2018-02-21T01:46:08.402Z,93.60
2018-02-21T01:47:44.677Z,93.30
2018-02-21T01:49:21.039Z,93.40
2018-02-21T01:50:58.793Z,92.70
2018-02-21T01:52:35.206Z,92.20
2018-02-21T01:54:12.357Z,91.80
2018-02-21T01:55:48.795Z,91.80
2018-02-21T01:57:25.473Z,91.40
2018-02-21T01:59:02.655Z,91.60
2018-02-21T02:00:40.382Z,91.60
2018-02-21T02:02:16.909Z,91.60
2018-02-21T02:03:53.552Z,92.30
2018-02-21T02:05:29.994Z,92.30
2018-02-21T02:07:07.039Z,91.40
2018-02-21T02:08:43.419Z,91.30
2018-02-21T02:10:20.294Z,91.50
2018-02-21T02:11:56.638Z,91.50
2018-02-21T02:13:36.464Z,91.70
2018-02-21T02:15:18.405Z,92.10
2018-02-21T02:16:58.453Z,92.10
2018-02-21T02:18:40.286Z,91.10
2018-02-21T02:20:19.077Z,90.60
2018-02-21T02:21:59.493Z,90.30
2018-02-21T02:23:39.514Z,90.20
2018-02-21T02:25:17.797Z,90.30
2018-02-21T02:26:56.985Z,90.30
2018-02-21T02:28:36.925Z,90.40
2018-02-21T02:30:15.220Z,90.30
2018-02-21T02:31:52.058Z,90.00
2018-02-21T02:33:28.465Z,89.80
2018-02-21T02:35:05.022Z,89.60
2018-02-21T02:36:42.743Z,90.50
2018-02-21T02:38:32.288Z,90.50
2018-02-21T02:40:09.428Z,91.00
2018-02-21T02:41:45.971Z,91.00
2018-02-21T02:43:22.744Z,91.20
2018-02-21T02:44:59.132Z,91.40
2018-02-21T02:46:35.878Z,91.10
2018-02-21T02:48:12.259Z,90.80
2018-02-21T02:49:50.399Z,90.10
2018-02-21T02:54:57.700Z,89.60
2018-02-21T02:56:35.489Z,89.80
2018-02-21T02:58:12.012Z,90.10
2018-02-21T02:59:48.575Z,90.20
2018-02-21T03:01:25.587Z,90.10
2018-02-21T03:03:02.337Z,89.90
2018-02-21T03:04:38.859Z,90.00
2018-02-21T03:06:16.200Z,90.50
2018-02-21T03:07:52.988Z,90.50
2018-02-21T03:09:29.733Z,90.40
2018-02-21T03:11:06.330Z,90.00
2018-02-21T03:12:43.724Z,89.90
2018-02-21T03:14:21.033Z,89.90
2018-02-21T03:15:58.075Z,89.90
2018-02-21T03:17:34.693Z,89.20
2018-02-21T03:19:11.391Z,90.00
2018-02-21T03:20:48.826Z,89.80
2018-02-21T03:22:25.832Z,90.00
2018-02-21T03:24:02.359Z,90.70
2018-02-21T03:25:39.619Z,90.90
2018-02-21T03:27:16.433Z,90.90
2018-02-21T03:28:54.079Z,91.10
2018-02-21T03:30:30.807Z,91.10
2018-02-21T03:32:08.736Z,91.60
2018-02-21T03:33:45.226Z,91.60
2018-02-21T03:35:21.645Z,91.60
2018-02-21T03:37:04.899Z,91.10
2018-02-21T03:38:42.410Z,90.80
2018-02-21T03:40:19.343Z,91.10
2018-02-21T03:41:56.515Z,91.30
2018-02-21T03:43:32.917Z,91.30
2018-02-21T03:45:09.361Z,91.70
2018-02-21T03:46:46.259Z,91.70
2018-02-21T03:48:22.748Z,91.90
2018-02-21T03:49:59.948Z,92.60
2018-02-21T03:51:37.518Z,92.50
2018-02-21T03:53:13.898Z,92.60
2018-02-21T03:54:50.256Z,93.50
2018-02-21T03:56:27.500Z,93.90
2018-02-21T03:58:04.290Z,93.90
2018-02-21T03:59:41.279Z,93.30
2018-02-21T04:01:17.943Z,93.60
2018-02-21T04:02:54.552Z,93.70
2018-02-21T04:04:31.616Z,92.90
2018-02-21T04:06:08.180Z,93.10
2018-02-21T04:07:45.687Z,93.40
2018-02-21T04:09:22.570Z,93.40
2018-02-21T04:10:59.944Z,93.10
2018-02-21T04:12:36.714Z,93.20
2018-02-21T04:14:13.588Z,93.70
2018-02-21T04:15:50.224Z,93.00
2018-02-21T04:17:27.529Z,92.60
2018-02-21T04:19:04.420Z,92.10
2018-02-21T04:20:41.792Z,92.60
2018-02-21T04:22:18.587Z,92.10
2018-02-21T04:23:55.433Z,91.90
2018-02-21T04:25:31.854Z,92.10
2018-02-21T04:27:09.771Z,93.90
2018-02-21T04:28:47.059Z,93.40
2018-02-21T04:30:25.596Z,93.40
2018-02-21T04:32:02.112Z,93.70
2018-02-21T04:33:38.474Z,94.00
2018-02-21T04:35:14.844Z,94.10
2018-02-21T04:36:51.920Z,93.50
2018-02-21T04:38:28.474Z,94.00
2018-02-21T04:40:05.866Z,95.10
2018-02-21T04:41:42.332Z,94.40
2018-02-21T04:43:18.724Z,93.90
2018-02-21T04:44:55.127Z,94.40
2018-02-21T04:46:31.794Z,95.10
2018-02-21T04:48:09.074Z,94.80
2018-02-21T04:49:46.236Z,94.40
2018-02-21T04:51:23.392Z,94.70
2018-02-21T04:52:59.978Z,94.70
2018-02-21T04:54:36.738Z,94.70
2018-02-21T04:56:13.237Z,95.10
2018-02-21T04:57:49.791Z,94.20
2018-02-21T04:59:27.240Z,95.10
2018-02-21T05:01:04.339Z,95.10
2018-02-21T05:02:41.629Z,96.10
2018-02-21T05:04:18.719Z,96.20
2018-02-21T05:05:55.069Z,96.10
2018-02-21T05:07:32.774Z,96.60
2018-02-21T05:09:10.492Z,96.60
2018-02-21T05:10:47.058Z,96.40
2018-02-21T05:12:23.668Z,96.20
2018-02-21T05:14:00.520Z,96.20
2018-02-21T05:15:37.111Z,95.30
2018-02-21T05:17:13.567Z,94.80
2018-02-21T05:18:49.836Z,95.10
2018-02-21T05:20:26.578Z,95.30
2018-02-21T05:22:02.843Z,95.60
2018-02-21T05:23:39.168Z,95.80
2018-02-21T05:25:15.736Z,95.40
2018-02-21T05:26:52.787Z,95.70
2018-02-21T05:28:29.175Z,94.70
2018-02-21T05:30:05.708Z,93.80
2018-02-21T05:31:42.280Z,93.60
2018-02-21T05:33:19.025Z,93.60
2018-02-21T05:34:55.292Z,94.10
2018-02-21T05:36:31.765Z,94.30
2018-02-21T05:38:08.152Z,93.80
2018-02-21T05:39:45.064Z,94.00
2018-02-21T05:41:21.333Z,94.00
2018-02-21T05:42:58.342Z,94.20
2018-02-21T05:44:35.408Z,93.40
2018-02-21T05:46:13.007Z,93.50
2018-02-21T05:47:49.356Z,93.00
2018-02-21T05:49:25.678Z,92.90
2018-02-21T05:51:02.019Z,92.80
2018-02-21T05:52:38.924Z,92.10
2018-02-21T05:54:15.249Z,91.50
2018-02-21T05:55:51.609Z,91.30
2018-02-21T05:57:28.739Z,91.60
2018-02-21T05:59:05.513Z,91.60
2018-02-21T06:00:42.068Z,91.90
2018-02-21T06:02:18.411Z,92.50
2018-02-21T06:03:54.709Z,93.00
2018-02-21T06:05:31.542Z,92.80
2018-02-21T06:07:07.782Z,92.60
2018-02-21T06:08:44.958Z,92.00
2018-02-21T06:10:21.378Z,92.00
2018-02-21T06:11:57.722Z,92.70
2018-02-21T06:13:34.388Z,92.40
2018-02-21T06:15:11.032Z,91.80
2018-02-21T06:16:47.577Z,91.60
2018-02-21T06:18:25.056Z,91.60
2018-02-21T06:20:01.356Z,91.60
2018-02-21T06:21:37.760Z,91.70
2018-02-21T06:23:14.952Z,91.20
2018-02-21T06:24:52.444Z,90.90
2018-02-21T06:26:29.492Z,91.10
2018-02-21T06:28:05.878Z,91.10
2018-02-21T06:29:43.047Z,91.70
2018-02-21T06:31:20.809Z,91.90
2018-02-21T06:32:57.136Z,91.90
2018-02-21T06:34:33.633Z,92.10
2018-02-21T06:36:10.060Z,92.10
2018-02-21T06:37:46.867Z,92.20
2018-02-21T06:39:23.080Z,92.10
2018-02-21T06:40:59.434Z,92.20
2018-02-21T06:42:35.965Z,92.30
2018-02-21T06:44:12.287Z,92.50
2018-02-21T06:45:48.916Z,92.80
2018-02-21T06:47:25.245Z,93.00
2018-02-21T06:49:01.461Z,93.70
2018-02-21T06:50:39.056Z,94.20
2018-02-21T06:52:15.409Z,94.20
2018-02-21T06:53:52.224Z,94.50
2018-02-21T06:55:28.540Z,94.30
2018-02-21T06:57:06.109Z,94.30
2018-02-21T06:58:43.270Z,94.10
2018-02-21T07:00:19.904Z,94.10
2018-02-21T07:01:56.520Z,94.20
2018-02-21T07:03:33.392Z,94.70
2018-02-21T07:05:09.665Z,94.40
2018-02-21T07:06:46.758Z,94.30
2018-02-21T07:08:23.459Z,94.30
2018-02-21T07:10:00.288Z,94.20
2018-02-21T07:11:36.830Z,94.20
2018-02-21T07:13:13.903Z,94.40
2018-02-21T07:14:51.184Z,94.40
2018-02-21T07:16:28.032Z,94.50
2018-02-21T07:18:04.374Z,94.20
2018-02-21T07:19:40.703Z,93.90
2018-02-21T07:21:17.793Z,93.60
2018-02-21T07:22:54.572Z,93.50
2018-02-21T07:24:30.911Z,93.70
2018-02-21T07:26:07.237Z,93.70
2018-02-21T07:27:43.637Z,93.70
2018-02-21T07:29:20.296Z,94.30
2018-02-21T07:30:56.802Z,94.40
2018-02-21T07:32:33.220Z,93.90
2018-02-21T07:34:09.471Z,93.60
2018-02-21T07:35:46.169Z,94.00
2018-02-21T07:37:23.552Z,93.80
2018-02-21T07:38:59.878Z,94.00
2018-02-21T07:40:36.286Z,93.70
2018-02-21T07:42:12.944Z,93.50
2018-02-21T07:43:50.308Z,94.60
2018-02-21T07:45:28.199Z,94.60
2018-02-21T07:47:04.643Z,94.20
2018-02-21T07:48:41.367Z,94.80
2018-02-21T07:50:17.899Z,95.40
2018-02-21T07:51:54.247Z,95.20
2018-02-21T07:53:30.649Z,95.00
2018-02-21T07:55:07.987Z,95.70
2018-02-21T07:56:44.438Z,95.30
2018-02-21T07:58:20.800Z,95.10
2018-02-21T07:59:57.190Z,94.80
2018-02-21T08:01:34.274Z,94.50
2018-02-21T08:03:10.882Z,93.10
2018-02-21T08:04:48.375Z,91.40
2018-02-21T08:06:25.532Z,91.40
2018-02-21T08:08:02.953Z,92.00
2018-02-21T08:09:39.393Z,92.00
2018-02-21T08:11:16.453Z,91.30
2018-02-21T08:12:53.428Z,92.20
2018-02-21T08:14:31.495Z,92.30
2018-02-21T08:16:08.916Z,92.20
2018-02-21T08:17:45.271Z,91.60
2018-02-21T08:19:22.473Z,91.20
2018-02-21T08:20:59.880Z,91.40
2018-02-21T08:22:36.992Z,91.40
2018-02-21T08:24:13.312Z,91.90
2018-02-21T08:25:50.527Z,92.00
2018-02-21T08:27:28.018Z,92.00
2018-02-21T08:29:04.857Z,91.40
2018-02-21T08:30:42.355Z,91.30
2018-02-21T08:32:18.629Z,91.30
2018-02-21T08:33:55.236Z,91.20
2018-02-21T08:35:31.571Z,91.50
2018-02-21T08:37:08.964Z,91.50
2018-02-21T08:38:45.281Z,91.20
2018-02-21T08:40:22.080Z,91.10
2018-02-21T08:41:58.542Z,91.50
2018-02-21T08:43:34.961Z,91.50
2018-02-21T08:45:12.189Z,92.20
2018-02-21T08:48:42.731Z,92.00
2018-02-21T08:50:19.065Z,91.90
2018-02-21T08:51:55.460Z,91.60
2018-02-21T08:53:32.069Z,91.30
2018-02-21T08:55:09.073Z,91.70
2018-02-21T08:56:45.465Z,91.60
2018-02-21T08:58:21.852Z,91.30
2018-02-21T08:59:58.167Z,91.80
2018-02-21T09:01:34.829Z,93.10
2018-02-21T09:03:11.082Z,92.00
2018-02-21T09:04:47.933Z,91.60
2018-02-21T09:06:24.215Z,91.50
2018-02-21T09:08:00.574Z,91.50
2018-02-21T09:09:37.435Z,91.10
2018-02-21T09:11:13.795Z,91.00
2018-02-21T09:12:50.235Z,91.60
2018-02-21T09:14:31.372Z,93.40
2018-02-21T09:16:08.185Z,93.40
2018-02-21T09:17:45.619Z,93.90
2018-02-21T09:19:22.042Z,94.00
2018-02-21T09:20:59.118Z,94.60
2018-02-21T09:22:35.458Z,94.60
2018-02-21T09:24:12.567Z,93.80
2018-02-21T09:25:50.250Z,91.80
2018-02-21T09:27:27.399Z,91.40
2018-02-21T09:29:04.309Z,91.40
2018-02-21T09:30:41.770Z,90.80
2018-02-21T09:32:18.162Z,91.00
2018-02-21T09:33:54.639Z,91.60
2018-02-21T09:35:30.917Z,90.80
2018-02-21T09:37:09.130Z,90.60
2018-02-21T09:38:46.073Z,90.90
2018-02-21T09:40:22.360Z,91.10
2018-02-21T09:41:59.000Z,90.50
2018-02-21T09:43:35.470Z,90.20
2018-02-21T09:45:11.890Z,89.30
2018-02-21T09:46:50.789Z,90.20
2018-02-21T09:48:27.900Z,90.40
2018-02-21T09:50:05.080Z,90.20
2018-02-21T09:51:41.566Z,90.20
2018-02-21T09:53:17.982Z,89.90
2018-02-21T09:54:54.817Z,89.90
2018-02-21T09:56:31.079Z,88.60
2018-02-21T09:58:07.403Z,88.50
2018-02-21T09:59:44.624Z,87.30
2018-02-21T10:01:21.837Z,87.40
2018-02-21T10:02:58.150Z,85.80
2018-02-21T10:04:34.604Z,86.00
2018-02-21T10:06:11.864Z,89.90
2018-02-21T10:07:49.689Z,89.90
2018-02-21T10:09:26.193Z,89.80
2018-02-21T10:11:02.607Z,85.80
2018-02-21T10:12:39.771Z,83.00
2018-02-21T10:14:16.948Z,81.60
2018-02-21T10:15:54.259Z,83.20
2018-02-21T10:17:30.582Z,83.10
2018-02-21T10:19:07.294Z,81.00
2018-02-21T10:20:43.779Z,81.10
2018-02-21T10:22:20.108Z,80.20
2018-02-21T10:23:56.518Z,79.50
2018-02-21T10:25:33.265Z,80.60
2018-02-21T10:27:09.769Z,81.60
2018-02-21T10:28:46.161Z,79.40
2018-02-21T10:30:24.449Z,79.20
2018-02-21T10:32:02.190Z,81.60
2018-02-21T10:33:39.269Z,81.60
2018-02-21T10:35:15.856Z,80.60
2018-02-21T10:36:52.410Z,80.00
2018-02-21T10:38:29.052Z,79.00
2018-02-21T10:40:05.075Z,79.20
2018-02-21T10:41:42.177Z,79.40
2018-02-21T10:43:18.695Z,79.50
2018-02-21T10:44:55.327Z,79.80
2018-02-21T10:46:31.727Z,80.20
2018-02-21T10:48:08.625Z,80.30
2018-02-21T10:49:47.379Z,81.50
2018-02-21T10:51:24.069Z,81.50
2018-02-21T10:53:00.751Z,82.20
2018-02-21T10:54:37.120Z,81.80
2018-02-21T10:56:13.523Z,81.90
2018-02-21T10:57:50.469Z,83.10
2018-02-21T10:59:26.864Z,80.70
2018-02-21T11:01:08.242Z,79.70
2018-02-21T11:02:45.452Z,81.10
2018-02-21T11:04:21.798Z,81.20
2018-02-21T11:05:58.214Z,80.60
2018-02-21T11:07:35.471Z,79.30
2018-02-21T11:09:11.872Z,78.50
2018-02-21T11:10:48.768Z,79.60
2018-02-21T11:12:25.119Z,79.80
2018-02-21T11:14:01.403Z,79.80
2018-02-21T11:15:38.674Z,80.10
2018-02-21T11:17:16.378Z,79.20
2018-02-21T11:18:53.432Z,79.00
2018-02-21T11:20:30.749Z,79.00
2018-02-21T11:22:07.214Z,81.40
2018-02-21T11:23:44.125Z,79.20
2018-02-21T11:25:21.282Z,77.00
2018-02-21T11:26:57.973Z,77.00
2018-02-21T11:30:15.824Z,80.50
2018-02-21T11:31:52.786Z,81.80
2018-02-21T11:33:29.114Z,80.20
2018-02-21T11:35:06.183Z,79.60
2018-02-21T11:36:42.989Z,79.60
2018-02-21T11:38:19.303Z,80.10
2018-02-21T11:39:55.727Z,79.10
2018-02-21T11:41:32.935Z,80.30
2018-02-21T11:43:09.612Z,79.60
2018-02-21T11:44:46.028Z,79.40
2018-02-21T11:46:22.576Z,79.20
2018-02-21T11:48:00.538Z,77.40
2018-02-21T11:49:37.229Z,77.20
2018-02-21T11:51:13.843Z,77.60
2018-02-21T11:52:50.228Z,77.00
2018-02-21T11:54:26.676Z,78.70
2018-02-21T11:56:03.133Z,77.50
2018-02-21T11:57:39.646Z,81.40
2018-02-21T11:59:16.028Z,80.80
2018-02-21T12:00:54.401Z,77.80
2018-02-21T12:02:31.800Z,77.70
2018-02-21T12:04:08.186Z,79.30
2018-02-21T12:05:48.522Z,77.20
2018-02-21T12:07:25.533Z,77.20
2018-02-21T12:09:02.137Z,76.40
2018-02-21T12:10:39.187Z,75.60
2018-02-21T12:12:16.767Z,75.60
2018-02-21T12:13:53.822Z,74.20
2018-02-21T12:15:31.102Z,74.10
2018-02-21T12:17:08.568Z,73.80
2018-02-21T12:18:44.979Z,73.80
2018-02-21T12:20:21.847Z,73.50
2018-02-21T12:21:58.937Z,73.10
2018-02-21T12:23:36.091Z,74.10
2018-02-21T12:25:12.373Z,74.10
2018-02-21T12:26:50.144Z,75.90
2018-02-21T12:28:27.456Z,75.30
2018-02-21T12:30:04.581Z,75.20
2018-02-21T12:31:41.230Z,74.00
2018-02-21T12:33:17.947Z,73.60
2018-02-21T12:34:54.578Z,74.70
2018-02-21T12:36:31.021Z,75.10
2018-02-21T12:38:07.566Z,75.60
2018-02-21T12:39:45.562Z,75.10
2018-02-21T12:41:58.093Z,75.60
2018-02-21T12:43:34.611Z,71.30
2018-02-21T12:45:12.499Z,70.50
2018-02-21T12:46:52.563Z,70.90
2018-02-21T12:48:29.752Z,73.10
2018-02-21T12:50:06.994Z,73.80
2018-02-21T12:51:43.834Z,73.70
2018-02-21T12:53:20.275Z,72.80
2018-02-21T12:54:57.609Z,72.90
2018-02-21T12:56:34.030Z,72.80
2018-02-21T12:58:10.819Z,74.20
2018-02-21T12:59:47.166Z,75.30
2018-02-21T13:01:24.876Z,75.10
2018-02-21T13:03:01.666Z,75.70
2018-02-21T13:04:38.951Z,77.00
2018-02-21T13:06:16.056Z,76.50
2018-02-21T13:07:53.230Z,72.90
2018-02-21T13:09:30.394Z,71.70
2018-02-21T13:11:07.272Z,71.70
2018-02-21T13:12:43.623Z,71.60
2018-02-21T13:14:20.186Z,70.30
2018-02-21T13:15:57.016Z,69.80
2018-02-21T13:17:33.989Z,70.40
2018-02-21T13:19:10.622Z,71.40
2018-02-21T13:20:46.976Z,71.50
2018-02-21T13:22:23.352Z,69.20
2018-02-21T13:24:00.028Z,67.00
2018-02-21T13:25:36.815Z,70.30
2018-02-21T13:27:14.426Z,70.30
2018-02-21T13:28:51.031Z,72.70
2018-02-21T13:30:30.649Z,70.60
2018-02-21T13:32:07.163Z,68.80
2018-02-21T13:33:44.245Z,70.40
2018-02-21T13:35:21.362Z,70.10
2018-02-21T13:36:58.571Z,70.10
2018-02-21T13:38:36.793Z,71.10
2018-02-21T13:40:13.156Z,71.10
2018-02-21T13:41:50.361Z,72.80
2018-02-21T13:43:27.979Z,70.20
2018-02-21T13:45:04.632Z,70.20
2018-02-21T13:46:41.644Z,69.50
2018-02-21T13:48:18.081Z,69.30
2018-02-21T13:49:55.227Z,69.10
2018-02-21T13:51:31.564Z,69.60
2018-02-21T13:53:09.021Z,69.30
2018-02-21T13:54:46.529Z,69.80
2018-02-21T13:56:23.550Z,69.90
2018-02-21T13:58:00.228Z,63.50
2018-02-21T13:59:37.517Z,62.10
2018-02-21T14:01:15.587Z,61.20
2018-02-21T14:02:54.295Z,63.70
2018-02-21T14:04:31.172Z,62.40
2018-02-21T14:06:08.513Z,62.20
2018-02-21T14:07:45.753Z,62.40
2018-02-21T14:09:23.724Z,62.40
2018-02-21T14:11:00.482Z,64.00
2018-02-21T14:12:39.308Z,66.70
2018-02-21T14:14:16.973Z,66.60
2018-02-21T14:15:55.102Z,65.40
2018-02-21T14:17:34.400Z,65.50
2018-02-21T14:19:11.628Z,59.80
2018-02-21T14:20:48.068Z,59.80
2018-02-21T14:22:25.004Z,57.60
2018-02-21T14:24:01.931Z,61.40
2018-02-21T14:25:39.663Z,62.80
2018-02-21T14:27:19.096Z,62.80
2018-02-21T14:28:58.451Z,63.10
2018-02-21T14:30:37.095Z,63.20
2018-02-21T14:32:14.304Z,64.40
2018-02-21T14:33:51.727Z,59.70
2018-02-21T14:35:28.716Z,59.60
2018-02-21T14:37:05.919Z,60.30
2018-02-21T14:38:43.502Z,62.50
2018-02-21T14:40:22.376Z,63.80
2018-02-21T14:42:02.024Z,63.60
2018-02-21T14:43:39.363Z,63.40
2018-02-21T14:45:18.451Z,63.30
2018-02-21T14:46:56.504Z,63.00
2018-02-21T14:48:35.199Z,64.30
2018-02-21T14:51:56.851Z,63.90
2018-02-21T14:53:34.565Z,65.00
2018-02-21T14:55:12.754Z,65.00
2018-02-21T14:56:51.686Z,66.10
2018-02-21T14:58:29.053Z,66.10
2018-02-21T15:00:08.058Z,67.90
2018-02-21T15:01:45.300Z,69.80
2018-02-21T15:03:23.695Z,67.90
2018-02-21T15:05:01.123Z,64.40
2018-02-21T15:06:37.964Z,64.40
2018-02-21T15:08:16.667Z,67.20
2018-02-21T15:09:54.033Z,68.30
2018-02-21T15:11:32.960Z,68.90
2018-02-21T15:13:13.080Z,68.90
2018-02-21T15:14:51.128Z,69.50
2018-02-21T15:16:28.762Z,69.40
2018-02-21T15:18:06.015Z,69.70
2018-02-21T15:19:45.821Z,69.30
2018-02-21T15:21:24.922Z,68.80
2018-02-21T15:23:01.564Z,68.50
2018-02-21T15:24:38.958Z,73.20
2018-02-21T15:26:15.646Z,73.00
2018-02-21T15:27:53.457Z,74.20
2018-02-21T15:29:32.473Z,74.80
2018-02-21T15:31:12.019Z,73.40
2018-02-21T15:32:50.097Z,72.50
2018-02-21T15:34:29.769Z,72.80
2018-02-21T15:36:07.082Z,73.30
2018-02-21T15:37:45.429Z,74.30
2018-02-21T15:39:23.299Z,73.50
2018-02-21T15:41:02.536Z,70.70
2018-02-21T15:42:40.107Z,71.10
2018-02-21T15:44:18.335Z,70.80
2018-02-21T15:45:56.612Z,71.70
2018-02-21T15:47:34.461Z,72.30
2018-02-21T15:49:13.449Z,75.30
2018-02-21T15:50:54.647Z,74.40
2018-02-21T15:52:35.250Z,74.40
2018-02-21T15:54:15.307Z,75.00
2018-02-21T15:55:54.404Z,75.20
2018-02-21T15:57:33.080Z,74.60
2018-02-21T15:59:12.723Z,74.80
2018-02-21T16:00:51.624Z,75.50
2018-02-21T16:02:28.198Z,74.70
2018-02-21T16:04:07.311Z,74.90
2018-02-21T16:05:47.775Z,75.00
2018-02-21T16:07:28.124Z,75.40
2018-02-21T16:09:06.349Z,75.40
2018-02-21T16:10:44.036Z,74.40
2018-02-21T16:12:21.630Z,75.00
2018-02-21T16:14:02.576Z,74.30
2018-02-21T16:15:41.441Z,74.20
2018-02-21T16:17:23.211Z,74.90
2018-02-21T16:19:06.834Z,74.00
2018-02-21T16:20:48.613Z,74.40
2018-02-21T16:22:28.685Z,74.40
2018-02-21T16:24:08.563Z,75.00
2018-02-21T16:25:49.063Z,75.40
2018-02-21T16:27:28.004Z,75.20
2018-02-21T16:29:06.204Z,76.60
2018-02-21T16:30:46.710Z,79.30
2018-02-21T16:32:25.651Z,78.90
2018-02-21T16:34:06.539Z,78.80
2018-02-21T16:35:45.693Z,78.00
2018-02-21T16:37:26.296Z,77.80
2018-02-21T16:39:05.915Z,78.80
2018-02-21T16:40:45.014Z,77.40
2018-02-21T16:42:24.607Z,76.70
2018-02-21T16:44:06.512Z,76.80
2018-02-21T16:45:47.807Z,77.40
2018-02-21T16:47:26.335Z,78.30
2018-02-21T16:49:05.877Z,78.30
2018-02-21T16:50:44.364Z,78.20
2018-02-21T16:52:26.130Z,78.40
2018-02-21T16:54:10.720Z,78.40
2018-02-21T16:55:54.517Z,77.00
2018-02-21T16:57:33.182Z,77.40
2018-02-21T16:59:11.448Z,76.40
2018-02-21T17:00:51.878Z,76.90
2018-02-21T17:02:30.912Z,77.10
2018-02-21T17:04:08.910Z,77.60
2018-02-21T17:05:46.016Z,78.30
2018-02-21T17:07:24.794Z,77.20
2018-02-21T17:09:02.501Z,77.20
2018-02-21T17:10:39.129Z,78.10
2018-02-21T17:12:18.013Z,78.90
2018-02-21T17:13:55.413Z,77.40
2018-02-21T17:15:35.545Z,77.80
2018-02-21T17:17:13.795Z,78.90
2018-02-21T17:18:51.391Z,79.30
2018-02-21T17:20:29.572Z,78.70
2018-02-21T17:22:08.167Z,78.70
2018-02-21T17:23:46.562Z,79.60
2018-02-21T17:25:29.781Z,79.60
2018-02-21T17:27:10.097Z,78.20
2018-02-21T17:28:50.986Z,77.70
2018-02-21T17:30:33.652Z,78.40
2018-02-21T17:32:13.589Z,79.10
2018-02-21T17:33:55.847Z,79.40
2018-02-21T17:35:37.665Z,78.40
2018-02-21T17:37:18.391Z,78.10
2018-02-21T17:39:00.094Z,78.20
2018-02-21T17:40:43.250Z,78.10
2018-02-21T17:42:25.339Z,77.70
2018-02-21T17:44:07.790Z,78.30
2018-02-21T17:45:47.416Z,78.70
2018-02-21T17:47:27.520Z,78.30
2018-02-21T17:49:13.327Z,78.00
2018-02-21T17:50:52.978Z,78.10
2018-02-21T17:52:33.287Z,79.50
2018-02-21T17:54:14.299Z,79.50
2018-02-21T17:55:54.042Z,79.10
2018-02-21T17:57:38.378Z,78.80
2018-02-21T17:59:21.802Z,78.80
2018-02-21T18:01:01.882Z,79.50
2018-02-21T18:02:40.322Z,79.80
2018-02-21T18:04:20.154Z,79.90
2018-02-21T18:06:01.797Z,79.90
2018-02-21T18:07:40.683Z,81.40
2018-02-21T18:09:21.984Z,80.90
2018-02-21T18:11:01.547Z,80.90
2018-02-21T18:12:39.712Z,81.00
2018-02-21T18:14:21.812Z,80.60
2018-02-21T18:16:04.592Z,80.40
2018-02-21T18:17:45.948Z,81.30
2018-02-21T18:19:24.929Z,81.50
2018-02-21T18:21:04.813Z,81.60
2018-02-21T18:22:47.641Z,81.20
2018-02-21T18:24:27.943Z,81.20
2018-02-21T18:26:14.868Z,81.30
2018-02-21T18:27:59.190Z,82.30
2018-02-21T18:29:43.120Z,82.40
2018-02-21T18:31:25.841Z,81.90
2018-02-21T18:33:15.496Z,82.40
2018-02-21T18:34:57.926Z,82.80
2018-02-21T18:36:39.056Z,82.70
2018-02-21T18:38:20.961Z,81.70
2018-02-21T18:40:00.814Z,81.60
2018-02-21T18:41:43.659Z,82.10
2018-02-21T18:43:28.479Z,82.20
2018-02-21T18:45:12.361Z,82.10
2018-02-21T18:46:59.553Z,81.30
2018-02-21T18:48:51.385Z,82.50
2018-02-21T18:50:52.091Z,82.60
2018-02-21T18:52:47.125Z,82.80
2018-02-21T18:54:41.680Z,83.60
2018-02-21T18:56:21.722Z,84.30
2018-02-21T18:58:03.779Z,84.70
2018-02-21T18:59:44.962Z,84.20
2018-02-21T19:01:25.812Z,84.90
2018-02-21T19:03:07.467Z,84.50
2018-02-21T19:05:02.896Z,83.70
2018-02-21T19:06:45.610Z,83.80
2018-02-21T19:08:27.140Z,83.80
2018-02-21T19:10:09.302Z,84.00
2018-02-21T19:11:49.631Z,84.30
2018-02-21T19:13:29.684Z,84.90
2018-02-21T19:15:09.774Z,84.20
2018-02-21T19:16:49.730Z,84.20
2018-02-21T19:18:32.692Z,85.10
2018-02-21T19:20:16.252Z,85.10
2018-02-21T19:22:00.224Z,88.60
2018-02-21T19:23:41.595Z,88.50
2018-02-21T19:25:21.859Z,87.60
2018-02-21T19:27:00.698Z,87.70
2018-02-21T19:28:46.299Z,87.90
2018-02-21T19:30:29.389Z,89.00
2018-02-21T19:32:10.123Z,88.80
2018-02-21T19:33:52.951Z,87.90
2018-02-21T19:35:40.704Z,87.80
2018-02-21T19:37:21.960Z,87.80
2018-02-21T19:39:05.337Z,89.50
2018-02-21T19:40:48.719Z,90.00
2018-02-21T19:42:35.383Z,89.40
2018-02-21T19:44:17.208Z,88.40
2018-02-21T19:46:00.250Z,86.90
2018-02-21T19:47:43.933Z,90.20
2018-02-21T19:49:24.263Z,90.50
2018-02-21T19:51:05.271Z,88.90
2018-02-21T19:52:52.682Z,89.50
2018-02-21T19:54:34.156Z,89.00
2018-02-21T19:56:21.516Z,89.10
2018-02-21T19:58:02.670Z,89.10
2018-02-21T19:59:46.017Z,88.40
2018-02-21T20:01:31.336Z,87.50
2018-02-21T20:03:30.591Z,87.80
2018-02-21T20:05:12.400Z,87.80
2018-02-21T20:08:46.202Z,86.00
2018-02-21T20:10:28.667Z,87.10
2018-02-21T20:12:09.992Z,88.70
2018-02-21T20:13:51.846Z,88.40
2018-02-21T20:15:36.713Z,88.40
2018-02-21T20:17:16.519Z,88.00
2018-02-21T20:18:59.492Z,88.30
2018-02-21T20:20:41.576Z,88.60
2018-02-21T20:22:24.885Z,88.60
2018-02-21T20:24:05.027Z,88.30
2018-02-21T20:25:48.245Z,87.10
2018-02-21T20:27:34.011Z,86.30
2018-02-21T20:29:16.587Z,85.90
2018-02-21T20:31:00.967Z,85.90
2018-02-21T20:32:43.331Z,87.40
2018-02-21T20:34:26.292Z,89.00
2018-02-21T20:36:10.150Z,89.00
2018-02-21T20:37:52.917Z,89.10
2018-02-21T20:39:35.824Z,88.10
2018-02-21T20:41:18.865Z,89.00
2018-02-21T20:42:58.472Z,89.00
2018-02-21T20:44:42.154Z,90.00
2018-02-21T20:46:23.388Z,90.00
2018-02-21T20:48:04.972Z,88.60
2018-02-21T20:49:44.901Z,88.60
2018-02-21T20:51:27.087Z,90.10
2018-02-21T20:53:06.867Z,90.20
2018-02-21T20:54:48.196Z,90.40
2018-02-21T20:56:27.167Z,89.90
2018-02-21T20:58:06.811Z,90.20
2018-02-21T20:59:45.676Z,90.00
2018-02-21T21:01:27.398Z,88.70
2018-02-21T21:04:49.271Z,90.00
2018-02-21T21:06:31.115Z,90.20
2018-02-21T21:08:11.513Z,90.30
2018-02-21T21:09:52.667Z,89.90
2018-02-21T21:11:35.903Z,89.30
2018-02-21T21:13:22.457Z,90.00
2018-02-21T21:15:02.996Z,90.00
2018-02-21T21:16:43.914Z,90.00
2018-02-21T21:18:23.477Z,89.10